Time;durP1;ratioP1;P1;durP2;ratioP2;P2;SDS_P1;SDS_P2;PMS_P1;PMS_P2;Temp;Humidity;BMP_temperature;BMP_pressure;BME280_temperature;BME280_humidity;BME280_pressure;Samples;Min_cycle;Max_cycle;Signal;HPM_P1;HPM_P2
2022/01/31 00:02:38;;;;;;;1999.90;999.90;;;;;;;6.83;56.10;101057.19;15619838;28;20016;-59
2022/01/31 00:10:12;;;;;;;1999.90;999.90;;;;;;;6.60;58.03;101042.25;15618804;28;20511;-62
2022/01/31 00:17:46;;;;;;;1999.90;999.90;;;;;;;6.23;60.14;101034.69;15619164;28;20388;-62
2022/01/31 00:25:18;;;;;;;1999.90;999.90;;;;;;;6.30;59.96;101001.91;15599984;28;20041;-61
2022/01/31 00:32:51;;;;;;;1999.90;999.90;;;;;;;6.54;59.52;100991.59;15621138;28;20042;-63
2022/01/31 00:40:24;;;;;;;1999.90;999.90;;;;;;;6.17;60.81;100978.53;15617036;28;20088;-61
2022/01/31 00:48:02;;;;;;;1999.90;999.90;;;;;;;6.10;61.22;100961.44;15616895;28;20504;-61
2022/01/31 00:55:36;;;;;;;1999.90;999.90;;;;;;;6.22;60.81;100947.97;15615809;28;20046;-61
2022/01/31 01:03:09;;;;;;;1999.90;999.90;;;;;;;6.31;60.73;100924.00;15599702;28;20152;-61
2022/01/31 01:10:41;;;;;;;1999.90;999.90;;;;;;;6.64;59.23;100922.13;15614223;28;20080;-60
2022/01/31 01:18:15;;;;;;;1999.90;999.90;;;;;;;6.65;59.38;100909.06;15598791;28;20140;-62
2022/01/31 01:25:47;;;;;;;1999.90;999.90;;;;;;;6.40;58.97;100890.91;15619876;28;20510;-63
2022/01/31 01:33:24;;;;;;;1999.90;999.90;;;;;;;6.40;59.09;100863.19;15617045;28;20124;-62
2022/01/31 01:40:59;;;;;;;1999.90;999.90;;;;;;;6.62;58.14;100849.50;15613786;28;20414;-61
2022/01/31 01:48:33;;;;;;;1999.90;999.90;;;;;;;6.69;57.61;100826.13;15614164;28;20119;-61
2022/01/31 01:56:05;;;;;;;;;;;;;;;6.63;57.81;100805.97;15596604;28;20057;-62
2022/01/31 02:03:41;;;;;;;1999.90;999.90;;;;;;;6.11;58.79;100791.31;15612048;28;19975;-61
2022/01/31 02:11:13;;;;;;;;;;;;;;;6.15;57.98;100780.44;15611318;28;20033;-61
2022/01/31 02:18:54;;;;;;;1999.90;999.90;;;;;;;6.23;58.62;100761.19;15591695;28;19932;-61
2022/01/31 02:27:03;;;;;;;1999.90;999.90;;;;;;;6.12;58.73;100736.72;15603505;28;20087;-60
2022/01/31 02:34:37;;;;;;;1999.90;999.90;;;;;;;6.38;57.78;100726.03;15632807;28;20064;-60
2022/01/31 02:42:11;;;;;;;1999.90;999.90;;;;;;;6.09;58.09;100710.44;15613336;28;20073;-60
2022/01/31 02:49:49;;;;;;;1999.90;999.90;;;;;;;6.38;57.37;100695.53;15622114;28;20048;-61
2022/01/31 02:57:23;;;;;;;1999.90;999.90;;;;;;;6.36;57.52;100671.72;15632782;28;20449;-61
2022/01/31 03:04:56;;;;;;;1999.90;999.90;;;;;;;6.21;57.59;100666.47;15623933;28;20048;-60
2022/01/31 03:12:29;;;;;;;1999.90;999.90;;;;;;;6.19;57.35;100640.19;15621404;28;20049;-61
2022/01/31 03:20:08;;;;;;;1999.90;999.90;;;;;;;6.45;56.75;100627.47;15620793;28;20056;-61
2022/01/31 03:27:43;;;;;;;1999.90;999.90;;;;;;;6.46;56.61;100606.97;15673352;22;20044;-60
2022/01/31 03:35:15;;;;;;;1999.90;999.90;;;;;;;6.26;57.47;100594.31;15709161;28;20045;-62
2022/01/31 03:42:49;;;;;;;1999.90;999.90;;;;;;;6.38;57.00;100548.66;15723638;28;20045;-62
2022/01/31 03:50:21;;;;;;;1999.90;999.90;;;;;;;6.51;56.43;100523.69;15740263;28;20048;-62
2022/01/31 03:57:57;;;;;;;1999.90;999.90;;;;;;;6.58;56.24;100515.78;15740804;28;20381;-62
2022/01/31 04:05:36;;;;;;;1999.90;999.90;;;;;;;6.42;57.20;100480.38;15723469;28;20154;-61
2022/01/31 04:13:09;;;;;;;1999.90;999.90;;;;;;;6.40;56.91;100461.28;15722854;28;20056;-62
2022/01/31 04:20:42;;;;;;;1999.90;999.90;;;;;;;6.28;57.16;100444.38;15740391;28;20048;-62
2022/01/31 04:28:20;;;;;;;1999.90;999.90;;;;;;;6.17;57.71;100412.50;15740526;28;20551;-61
2022/01/31 04:35:52;;;;;;;1999.90;999.90;;;;;;;6.15;58.44;100412.81;15701731;28;20090;-61
2022/01/31 04:43:26;;;;;;;1999.90;999.90;;;;;;;5.98;58.30;100394.03;15721605;28;20052;-62
2022/01/31 04:50:58;;;;;;;1999.90;999.90;;;;;;;5.87;59.01;100375.97;15739160;28;20136;-62
2022/01/31 04:58:32;;;;;;;1999.90;999.90;;;;;;;5.97;58.67;100347.28;15721721;28;20121;-62
2022/01/31 05:06:04;;;;;;;1999.90;999.90;;;;;;;5.88;58.69;100329.72;15737970;28;20409;-62
2022/01/31 05:13:38;;;;;;;1999.90;999.90;;;;;;;5.93;58.73;100313.00;15719427;28;20040;-61
2022/01/31 05:21:10;;;;;;;1999.90;999.90;;;;;;;5.50;59.28;100294.00;15739087;28;20063;-63
2022/01/31 05:28:43;;;;;;;1999.90;999.90;;;;;;;5.81;59.43;100280.31;15734832;28;20102;-60
2022/01/31 05:36:15;;;;;;;1999.90;999.90;;;;;;;5.81;59.05;100258.16;15702273;28;20465;-62
2022/01/31 05:43:49;;;;;;;1999.90;999.90;;;;;;;5.45;59.81;100252.63;15732436;28;20242;-62
2022/01/31 05:51:21;;;;;;;;;;;;;;;5.53;59.64;100240.00;15712149;28;20408;-60
2022/01/31 05:58:55;;;;;;;1999.90;999.90;;;;;;;5.41;60.23;100215.59;15719325;28;19971;-61
2022/01/31 06:06:27;;;;;;;1999.90;999.90;;;;;;;5.28;60.06;100192.38;15732514;28;20036;-61
2022/01/31 06:14:02;;;;;;;1999.90;999.90;;;;;;;5.34;59.71;100168.19;15694894;28;20036;-61
2022/01/31 06:21:35;;;;;;;1999.90;999.90;;;;;;;5.40;59.52;100153.09;15731990;28;20057;-59
2022/01/31 06:29:08;;;;;;;1999.90;999.90;;;;;;;5.24;60.07;100130.50;15744493;28;20048;-62
2022/01/31 06:36:47;;;;;;;1999.90;999.90;;;;;;;5.18;59.54;100118.72;15733050;28;20049;-62
2022/01/31 06:44:21;;;;;;;1999.90;999.90;;;;;;;5.29;59.61;100099.13;15733771;28;20493;-62
2022/01/31 06:51:53;;;;;;;;;;;;;;;5.38;59.82;100075.13;15727691;28;20045;-61
2022/01/31 06:59:26;;;;;;;1999.90;999.90;;;;;;;5.28;59.91;100053.25;15699450;28;19947;-61
2022/01/31 07:06:58;;;;;;;1999.90;999.90;;;;;;;5.34;59.84;100052.81;15653381;28;20052;-62
2022/01/31 07:14:33;;;;;;;1999.90;999.90;;;;;;;5.29;59.65;100043.81;15677407;28;20469;-62
2022/01/31 07:22:09;;;;;;;1999.90;999.90;;;;;;;5.14;60.49;100051.34;15681599;28;20434;-61
2022/01/31 07:29:44;;;;;;;1999.90;999.90;;;;;;;5.13;60.62;100032.31;15736366;28;20133;-61
2022/01/31 07:37:16;;;;;;;1999.90;999.90;;;;;;;4.84;61.25;100024.41;15743556;28;20127;-61
2022/01/31 07:44:50;;;;;;;1999.90;999.90;;;;;;;5.03;60.68;100018.72;15725152;28;20086;-59
2022/01/31 07:52:22;;;;;;;1999.90;999.90;;;;;;;4.75;61.55;100005.00;15682553;28;20060;-58
2022/01/31 07:59:55;;;;;;;1999.90;999.90;;;;;;;4.74;62.38;99991.47;15717483;28;20067;-63
2022/01/31 08:07:27;;;;;;;1999.90;999.90;;;;;;;4.59;62.15;99974.13;15736452;28;20050;-62
2022/01/31 08:15:04;;;;;;;1999.90;999.90;;;;;;;4.85;61.71;99959.72;15720833;28;20076;-60
2022/01/31 08:22:36;;;;;;;1999.90;999.90;;;;;;;4.86;61.31;99948.34;15736651;28;20044;-60
2022/01/31 08:30:16;;;;;;;1999.90;999.90;;;;;;;4.96;61.79;99938.16;15738558;28;20470;-57
2022/01/31 08:37:48;;;;;;;1999.90;999.90;;;;;;;5.20;60.98;99924.81;15737516;28;20059;-56
2022/01/31 08:45:21;;;;;;;1999.90;999.90;;;;;;;5.48;60.93;99915.19;15739449;28;20140;-62
2022/01/31 08:52:53;;;;;;;;;;;;;;;5.40;60.65;99906.84;15738872;28;20144;-62
2022/01/31 09:00:33;;;;;;;1999.90;999.90;;;;;;;5.29;60.58;99895.25;15719343;28;19921;-61
2022/01/31 09:08:06;;;;;;;1999.90;999.90;;;;;;;5.64;59.66;99895.41;15737567;28;20052;-60
2022/01/31 09:15:40;;;;;;;1999.90;999.90;;;;;;;5.50;60.16;99898.28;15718466;28;20056;-61
2022/01/31 09:23:12;;;;;;;;;;;;;;;5.89;59.33;99880.84;15737325;28;20040;-61
2022/01/31 09:30:47;;;;;;;1999.90;999.90;;;;;;;5.81;59.08;99867.78;15701092;22;19921;-63
2022/01/31 09:38:23;;;;;;;1999.90;999.90;;;;;;;5.83;60.03;99871.03;15674431;28;20043;-63
2022/01/31 09:46:04;;;;;;;1999.90;999.90;;;;;;;6.03;59.63;99870.47;15655332;28;20056;-63
2022/01/31 09:53:38;;;;;;;1999.90;999.90;;;;;;;6.11;58.68;99852.22;15641549;28;20060;-62
2022/01/31 10:01:14;;;;;;;1999.90;999.90;;;;;;;6.17;59.24;99847.38;15676286;28;20431;-63
2022/01/31 10:08:46;;;;;;;1999.90;999.90;;;;;;;6.09;58.98;99846.22;15674910;28;20529;-62
2022/01/31 10:16:27;;;;;;;1999.90;999.90;;;;;;;6.54;58.38;99851.44;15676140;28;20463;-62
2022/01/31 10:23:59;;;;;;;1999.90;999.90;;;;;;;6.58;58.17;99844.09;15675693;28;20754;-63
2022/01/31 10:31:32;;;;;;;1999.90;999.90;;;;;;;6.72;57.58;99833.63;15675740;28;20477;-63
2022/01/31 10:39:13;;;;;;;1999.90;999.90;;;;;;;7.06;57.13;99831.94;15657753;28;20103;-60
2022/01/31 12:34:39;;;;;;;1999.90;999.90;;;;;;;9.22;54.11;99814.50;15672454;28;20065;-63
2022/01/31 12:42:46;;;;;;;1999.90;999.90;;;;;;;9.32;54.57;99815.19;15678073;28;20052;-63
2022/01/31 12:50:21;;;;;;;1999.90;999.90;;;;;;;8.66;55.36;99816.09;15680734;28;20494;-63
2022/01/31 12:57:54;;;;;;;1999.90;999.90;;;;;;;9.93;51.88;99816.00;15681284;28;20041;-63
2022/01/31 13:05:35;;;;;;;1999.90;999.90;;;;;;;10.81;50.88;99817.03;15679725;28;20100;-63
2022/01/31 13:13:08;;;;;;;1999.90;999.90;;;;;;;8.76;55.56;99826.78;15664924;28;20048;-62
2022/01/31 13:20:41;;;;;;;1999.90;999.90;;;;;;;8.84;55.62;99831.44;15644218;28;20584;-61
2022/01/31 13:28:13;;;;;;;;;;;;;;;9.20;55.87;99821.56;15677992;28;20132;-63
2022/01/31 13:35:47;;;;;;;1999.90;999.90;;;;;;;8.08;57.52;99842.84;15666335;28;19927;-64
2022/01/31 13:43:25;;;;;;;1999.90;999.90;;;;;;;8.40;56.92;99866.34;15666041;28;20041;-63
2022/01/31 13:51:01;;;;;;;1999.90;999.90;;;;;;;7.77;59.37;99863.47;15658189;28;20054;-64
2022/01/31 13:58:35;;;;;;;1999.90;999.90;;;;;;;6.86;62.21;99872.25;15631211;28;20040;-61
2022/01/31 14:06:11;;;;;;;1999.90;999.90;;;;;;;6.64;62.65;99884.34;15658568;28;20052;-62
2022/01/31 14:13:47;;;;;;;1999.90;999.90;;;;;;;6.99;61.73;99892.66;15641200;28;20140;-64
2022/01/31 14:21:24;;;;;;;1999.90;999.90;;;;;;;7.11;61.56;99892.78;15670504;28;20072;-65
2022/01/31 14:29:12;;;;;;;1999.90;999.90;;;;;;;7.70;58.78;99896.50;15600014;28;20442;-66
2022/01/31 14:36:50;;;;;;;1999.90;999.90;;;;;;;7.76;58.32;99913.78;15646127;28;20045;-62
2022/01/31 14:52:14;;;;;;;1999.90;999.90;;;;;;;7.94;57.75;99912.56;15665938;28;20053;-63
2022/01/31 14:59:46;;;;;;;1999.90;999.90;;;;;;;7.33;58.74;99939.75;15689320;28;20522;-63
2022/01/31 15:07:22;;;;;;;1999.90;999.90;;;;;;;7.15;59.08;99952.81;15691838;28;20052;-63
2022/01/31 15:14:56;;;;;;;1999.90;999.90;;;;;;;7.45;58.80;99970.41;15684197;28;20505;-64
2022/01/31 15:22:29;;;;;;;1999.90;999.90;;;;;;;7.52;59.29;99986.56;15680209;28;20048;-65
2022/01/31 15:30:04;;;;;;;1999.90;999.90;;;;;;;7.29;58.91;99993.44;15674762;28;20044;-62
2022/01/31 15:37:38;;;;;;;1999.90;999.90;;;;;;;7.67;57.83;100013.78;15651341;28;20033;-61
2022/01/31 15:45:11;;;;;;;1999.90;999.90;;;;;;;7.78;58.52;100022.59;15687768;28;20457;-61
2022/01/31 15:52:44;;;;;;;1999.90;999.90;;;;;;;7.57;60.52;100036.34;15670852;28;20048;-60
2022/01/31 16:00:17;;;;;;;1999.90;999.90;;;;;;;7.77;59.78;100059.84;15690779;28;20059;-61
2022/01/31 16:07:53;;;;;;;1999.90;999.90;;;;;;;7.31;60.88;100069.69;15689143;28;20056;-61
2022/01/31 16:15:25;;;;;;;;;;;;;;;7.43;60.58;100083.72;15708696;28;20101;-60
2022/01/31 16:22:59;;;;;;;1999.90;999.90;;;;;;;7.20;61.06;100083.09;15690389;28;20438;-60
2022/01/31 16:30:32;;;;;;;;;;;;;;;7.38;60.61;100108.03;15710060;28;20040;-60
2022/01/31 16:38:07;;;;;;;;;;;;;;;7.09;61.84;100117.03;15684172;28;19920;-59
2022/01/31 16:45:40;;;;;;;1999.90;999.90;;;;;;;7.14;61.09;100131.53;15685905;28;19924;-60
2022/01/31 16:53:13;;;;;;;1999.90;999.90;;;;;;;7.23;60.34;100134.34;15663832;28;20041;-61
2022/01/31 17:00:45;;;;;;;1999.90;999.90;;;;;;;6.52;61.91;100145.56;15727152;28;20048;-60
2022/01/31 17:08:19;;;;;;;1999.90;999.90;;;;;;;6.88;61.10;100150.91;15732468;28;20049;-61
2022/01/31 17:15:51;;;;;;;1999.90;999.90;;;;;;;7.12;60.34;100160.75;15690270;28;20033;-61
2022/01/31 17:23:24;;;;;;;1999.90;999.90;;;;;;;6.74;61.30;100163.25;15654546;28;20156;-60
2022/01/31 17:30:57;;;;;;;1999.90;999.90;;;;;;;6.80;60.13;100187.75;15707549;28;20079;-61
2022/01/31 17:38:30;;;;;;;1999.90;999.90;;;;;;;6.93;59.37;100200.69;15697455;28;20033;-62
2022/01/31 17:46:02;;;;;;;;;;;;;;;6.53;60.37;100216.50;15714682;28;20132;-59
2022/01/31 17:53:36;;;;;;;1999.90;999.90;;;;;;;6.40;61.06;100234.03;15670251;28;20423;-60
2022/01/31 18:01:08;;;;;;;1999.90;999.90;;;;;;;6.26;61.33;100259.06;15669779;28;20482;-60
2022/01/31 18:08:42;;;;;;;1999.90;999.90;;;;;;;6.22;61.28;100277.41;15665396;28;20107;-64
2022/01/31 18:16:14;;;;;;;1999.90;999.90;;;;;;;6.23;60.92;100284.59;15668714;28;20071;-60
2022/01/31 18:23:47;;;;;;;1999.90;999.90;;;;;;;6.32;60.74;100290.22;15659155;28;20036;-63
2022/01/31 18:31:21;;;;;;;1999.90;999.90;;;;;;;6.19;60.90;100311.31;15640809;28;20076;-62
2022/01/31 18:38:54;;;;;;;1999.90;999.90;;;;;;;6.38;59.94;100311.13;15722475;28;20041;-61
2022/01/31 18:46:30;;;;;;;1999.90;999.90;;;;;;;6.33;59.93;100337.00;15675470;28;20351;-61
2022/01/31 18:54:07;;;;;;;1999.90;999.90;;;;;;;6.68;59.45;100344.78;15687395;28;20203;-63
2022/01/31 19:01:40;;;;;;;1999.90;999.90;;;;;;;6.50;59.34;100354.91;15686443;28;20053;-63
2022/01/31 19:09:16;;;;;;;1999.90;999.90;;;;;;;6.58;60.00;100377.16;15688208;28;20068;-62
2022/01/31 19:16:48;;;;;;;1999.90;999.90;;;;;;;6.41;60.68;100379.78;15741047;28;20052;-63
2022/01/31 19:24:22;;;;;;;1999.90;999.90;;;;;;;6.26;60.05;100382.91;15726298;28;20076;-62
2022/01/31 19:31:54;;;;;;;1999.90;999.90;;;;;;;5.89;61.32;100384.78;15676637;28;20053;-62
2022/01/31 19:43:14;;;;;;;1999.90;999.90;;;;;;;5.67;60.83;100416.00;15672241;28;20037;-62
2022/01/31 19:47:30;;;;;;;1999.90;999.90;;;;;;;5.36;62.07;100440.66;15690363;28;20036;-60
2022/01/31 19:55:05;;;;;;;1999.90;999.90;;;;;;;5.22;62.38;100467.50;15698311;28;20041;-62
2022/01/31 20:02:37;;;;;;;1999.90;999.90;;;;;;;5.24;63.59;100481.00;15693160;28;20049;-64
2022/01/31 20:10:11;;;;;;;1999.90;999.90;;;;;;;5.04;64.42;100513.41;15678242;28;20073;-62
2022/01/31 20:17:45;;;;;;;1999.90;999.90;;;;;;;4.99;64.53;100538.38;15674479;28;20092;-61
2022/01/31 20:25:20;;;;;;;1999.90;999.90;;;;;;;4.97;64.54;100553.63;15688942;28;20135;-61
2022/01/31 20:32:52;;;;;;;1999.90;999.90;;;;;;;5.16;64.24;100557.19;15666073;28;20053;-61
2022/01/31 20:40:56;;;;;;;1999.90;999.90;;;;;;;4.96;64.79;100565.81;15688404;28;20068;-61
2022/01/31 20:48:28;;;;;;;1999.90;999.90;;;;;;;4.93;64.70;100570.00;15692544;28;20072;-61
2022/01/31 20:56:02;;;;;;;1999.90;999.90;;;;;;;5.14;64.71;100582.41;15702630;28;20466;-61
2022/01/31 21:03:36;;;;;;;1999.90;999.90;;;;;;;5.12;64.80;100595.72;15694813;28;20041;-62
2022/01/31 21:11:10;;;;;;;1999.90;999.90;;;;;;;5.05;64.66;100583.38;15697059;28;20075;-59
2022/01/31 21:18:42;;;;;;;1999.90;999.90;;;;;;;5.10;64.73;100569.44;15667879;28;20047;-60
2022/01/31 21:26:15;;;;;;;1999.90;999.90;;;;;;;5.16;64.95;100598.69;15685057;28;20041;-62
2022/01/31 21:33:49;;;;;;;1999.90;999.90;;;;;;;5.16;65.14;100585.69;15704072;28;20326;-60
2022/01/31 21:41:22;;;;;;;1999.90;999.90;;;;;;;5.25;65.16;100588.59;15716102;28;20059;-61
2022/01/31 21:48:54;;;;;;;;;;;;;;;5.36;64.36;100595.63;15680450;28;20140;-61
2022/01/31 21:56:28;;;;;;;1999.90;999.90;;;;;;;5.30;64.53;100605.09;15677222;28;20393;-60
2022/01/31 22:04:00;;;;;;;1999.90;999.90;;;;;;;5.10;64.90;100631.13;15659930;28;20091;-61
2022/01/31 22:11:42;;;;;;;1999.90;999.90;;;;;;;5.10;65.23;100641.38;15708012;28;20037;-61
2022/01/31 22:19:14;;;;;;;1999.90;999.90;;;;;;;4.99;65.25;100653.69;15661311;28;20041;-62
2022/01/31 22:26:47;;;;;;;1999.90;999.90;;;;;;;5.13;64.57;100660.16;15646522;28;20064;-62
2022/01/31 22:34:20;;;;;;;1999.90;999.90;;;;;;;5.16;65.15;100657.59;15660494;28;20045;-62
2022/01/31 22:41:55;;;;;;;1999.90;999.90;;;;;;;5.18;65.13;100654.53;15681388;28;20106;-61
2022/01/31 22:49:27;;;;;;;1999.90;999.90;;;;;;;5.01;65.39;100662.53;15684368;28;20056;-62
2022/01/31 22:57:01;;;;;;;1999.90;999.90;;;;;;;4.83;66.32;100661.38;15691406;28;20045;-62
2022/01/31 23:04:33;;;;;;;1999.90;999.90;;;;;;;4.93;66.32;100666.78;15714222;28;20065;-62
2022/01/31 23:12:08;;;;;;;1999.90;999.90;;;;;;;4.96;66.59;100660.66;15709026;28;20044;-61
2022/01/31 23:19:54;;;;;;;1999.90;999.90;;;;;;;4.76;67.60;100652.63;15717247;28;20417;-63
2022/01/31 23:43:43;;;;;;;1999.90;999.90;;;;;;;4.64;68.70;100681.50;15692157;28;20395;-62
2022/01/31 23:51:49;;;;;;;1999.90;999.90;;;;;;;4.63;69.02;100677.09;15684072;28;20045;-62
2022/01/31 23:59:30;;;;;;;1999.90;999.90;;;;;;;4.64;69.82;100698.09;15711164;28;20064;-63
